createdAt,value
2024-03-12T00:00:12.372Z,9.500
2024-03-12T00:01:14.168Z,9.700
2024-03-12T00:02:12.009Z,10.200
2024-03-12T00:03:12.455Z,9.000
2024-03-12T00:04:12.226Z,8.800
2024-03-12T00:05:11.684Z,9.000
2024-03-12T00:06:12.100Z,9.900
2024-03-12T00:07:11.863Z,10.200
2024-03-12T00:08:12.515Z,9.500
2024-03-12T00:09:11.906Z,9.300
2024-03-12T00:10:12.652Z,9.400
2024-03-12T00:11:11.748Z,9.800
2024-03-12T00:12:12.163Z,9.100
2024-03-12T00:13:11.740Z,9.100
2024-03-12T00:14:12.389Z,10.000
2024-03-12T00:15:11.699Z,10.200
2024-03-12T00:16:13.072Z,11.100
2024-03-12T00:17:11.525Z,10.900
2024-03-12T00:18:12.067Z,11.000
2024-03-12T00:19:11.693Z,10.800
2024-03-12T00:20:13.023Z,10.300
2024-03-12T00:21:12.416Z,10.200
2024-03-12T00:23:11.869Z,10.300
2024-03-12T00:24:12.534Z,10.000
2024-03-12T00:25:12.574Z,10.900
2024-03-12T00:26:12.069Z,11.100
2024-03-12T00:27:11.429Z,11.100
2024-03-12T00:28:13.205Z,10.800
2024-03-12T00:29:11.557Z,10.900
2024-03-12T00:30:12.211Z,11.600
2024-03-12T00:31:12.055Z,11.600
2024-03-12T00:32:11.432Z,11.200
2024-03-12T00:33:12.299Z,11.600
2024-03-12T00:34:12.167Z,10.400
2024-03-12T00:35:11.598Z,11.200
2024-03-12T00:36:12.113Z,10.400
2024-03-12T00:37:11.816Z,11.100
2024-03-12T00:38:12.349Z,11.000
2024-03-12T00:39:12.110Z,11.000
2024-03-12T00:40:11.820Z,11.000
2024-03-12T00:41:12.438Z,12.400
2024-03-12T00:42:11.729Z,10.500
2024-03-12T00:43:12.958Z,10.700
2024-03-12T00:44:12.504Z,11.300
2024-03-12T00:45:11.742Z,10.700
2024-03-12T00:46:12.836Z,10.700
2024-03-12T00:47:12.544Z,10.800
2024-03-12T00:49:12.206Z,11.200
2024-03-12T00:50:11.584Z,11.500
2024-03-12T00:51:12.056Z,11.000
2024-03-12T00:52:12.801Z,11.900
2024-03-12T00:53:12.209Z,12.200
2024-03-12T00:54:11.486Z,11.700
2024-03-12T00:55:12.229Z,11.000
2024-03-12T00:56:11.620Z,11.800
2024-03-12T00:57:12.121Z,11.900
2024-03-12T00:58:12.492Z,11.400
2024-03-12T00:59:12.262Z,11.600
2024-03-12T01:00:11.686Z,11.100
2024-03-12T01:01:12.675Z,12.100
2024-03-12T01:02:11.428Z,11.500
2024-03-12T01:03:11.766Z,12.200
2024-03-12T01:04:12.695Z,11.900
2024-03-12T01:05:12.026Z,12.400
2024-03-12T01:06:12.429Z,12.500
2024-03-12T01:07:12.238Z,12.300
2024-03-12T01:08:12.355Z,13.300
2024-03-12T01:10:13.088Z,12.800
2024-03-12T01:11:11.736Z,12.400
2024-03-12T01:12:12.229Z,12.300
2024-03-12T01:13:12.498Z,12.400
2024-03-12T01:14:12.269Z,11.900
2024-03-12T01:15:11.694Z,12.600
2024-03-12T01:16:12.822Z,12.300
2024-03-12T01:17:12.561Z,11.700
2024-03-12T01:18:13.451Z,12.000
2024-03-12T01:19:12.217Z,11.700
2024-03-12T01:20:11.527Z,11.600
2024-03-12T01:21:12.072Z,11.600
2024-03-12T01:22:11.645Z,12.200
2024-03-12T01:23:13.327Z,11.700
2024-03-12T01:24:11.608Z,11.700
2024-03-12T01:25:12.145Z,11.200
2024-03-12T01:26:11.465Z,11.900
2024-03-12T01:27:11.832Z,11.500
2024-03-12T01:28:14.917Z,11.400
2024-03-12T01:31:12.664Z,10.600
2024-03-12T01:32:12.191Z,11.200
2024-03-12T01:33:12.655Z,11.600
2024-03-12T01:35:11.632Z,10.900
2024-03-12T01:36:12.028Z,10.800
2024-03-12T01:37:13.160Z,10.000
2024-03-12T01:38:12.804Z,11.100
2024-03-12T01:39:12.546Z,10.100
2024-03-12T01:40:12.648Z,11.400
2024-03-12T01:41:12.020Z,10.600
2024-03-12T01:42:12.412Z,10.600
2024-03-12T01:43:12.278Z,10.300
2024-03-12T01:44:11.665Z,10.300
2024-03-12T01:45:12.098Z,11.500
2024-03-12T01:46:11.787Z,11.500
2024-03-12T01:47:12.226Z,11.300
2024-03-12T01:48:13.936Z,10.500
2024-03-12T01:49:11.663Z,10.600
2024-03-12T01:50:12.060Z,11.100
2024-03-12T01:51:12.430Z,11.300
2024-03-12T01:52:12.129Z,11.000
2024-03-12T01:53:12.835Z,11.700
2024-03-12T01:55:11.800Z,10.500
2024-03-12T01:56:12.116Z,10.700
2024-03-12T01:57:11.460Z,10.900
2024-03-12T01:58:12.305Z,11.400
2024-03-12T01:59:11.673Z,11.000
2024-03-12T02:00:11.991Z,11.900
2024-03-12T02:01:13.044Z,10.700
2024-03-12T02:02:11.894Z,11.800
2024-03-12T02:03:12.267Z,11.000
2024-03-12T02:05:11.769Z,11.000
2024-03-12T02:06:12.115Z,11.300
2024-03-12T02:07:11.799Z,11.700
2024-03-12T02:08:12.187Z,11.600
2024-03-12T02:09:11.505Z,10.700
2024-03-12T02:10:12.185Z,11.000
2024-03-12T02:11:11.659Z,10.700
2024-03-12T02:12:12.009Z,11.200
2024-03-12T02:13:13.354Z,12.500
2024-03-12T02:14:11.933Z,10.800
2024-03-12T02:15:12.302Z,10.500
2024-03-12T02:16:12.078Z,11.900
2024-03-12T02:17:11.434Z,11.700
2024-03-12T02:18:12.285Z,11.100
2024-03-12T02:19:12.038Z,10.900
2024-03-12T02:20:11.666Z,10.700
2024-03-12T02:21:12.130Z,10.300
2024-03-12T02:22:12.029Z,11.400
2024-03-12T02:23:11.529Z,11.300
2024-03-12T02:24:11.985Z,10.900
2024-03-12T02:25:13.254Z,11.600
2024-03-12T02:26:11.661Z,11.300
2024-03-12T02:27:12.082Z,11.500
2024-03-12T02:28:13.372Z,11.000
2024-03-12T02:29:11.878Z,11.800
2024-03-12T02:30:13.000Z,11.100
2024-03-12T02:31:13.398Z,10.400
2024-03-12T02:32:11.846Z,10.800
2024-03-12T02:33:12.596Z,11.200
2024-03-12T02:34:12.433Z,11.200
2024-03-12T02:35:11.860Z,11.200
2024-03-12T02:36:12.213Z,11.100
2024-03-12T02:37:11.680Z,11.000
2024-03-12T02:38:12.223Z,11.300
2024-03-12T02:39:11.632Z,11.300
2024-03-12T02:40:12.813Z,11.500
2024-03-12T02:41:12.281Z,11.600
2024-03-12T02:42:11.586Z,11.100
2024-03-12T02:43:12.316Z,10.900
2024-03-12T02:44:11.725Z,10.600
2024-03-12T02:45:12.188Z,11.000
2024-03-12T02:46:12.153Z,10.900
2024-03-12T02:47:11.731Z,11.200
2024-03-12T02:48:12.607Z,11.400
2024-03-12T02:50:11.954Z,10.700
2024-03-12T02:51:12.303Z,11.500
2024-03-12T02:52:11.989Z,11.300
2024-03-12T02:53:12.358Z,11.200
2024-03-12T02:54:11.770Z,11.100
2024-03-12T02:55:12.460Z,11.200
2024-03-12T02:56:11.942Z,10.800
2024-03-12T02:57:12.296Z,11.000
2024-03-12T02:58:12.064Z,10.500
2024-03-12T02:59:11.632Z,10.200
2024-03-12T03:00:12.065Z,10.900
2024-03-12T03:01:12.941Z,11.700
2024-03-12T03:02:11.850Z,10.600
2024-03-12T03:03:12.326Z,10.800
2024-03-12T03:04:11.882Z,11.600
2024-03-12T03:05:12.836Z,10.100
2024-03-12T03:06:12.448Z,10.300
2024-03-12T03:07:12.445Z,10.300
2024-03-12T03:08:11.884Z,11.000
2024-03-12T03:09:12.338Z,10.800
2024-03-12T03:10:13.678Z,10.900
2024-03-12T03:11:12.032Z,10.800
2024-03-12T03:12:11.442Z,11.000
2024-03-12T03:13:12.155Z,10.400
2024-03-12T03:16:13.577Z,10.700
2024-03-12T03:18:12.251Z,10.400
2024-03-12T03:19:12.195Z,11.200
2024-03-12T03:20:11.613Z,10.100
2024-03-12T03:21:12.137Z,11.100
2024-03-12T03:22:12.263Z,10.900
2024-03-12T03:23:11.676Z,10.600
2024-03-12T03:24:12.129Z,11.200
2024-03-12T03:25:11.791Z,10.300
2024-03-12T03:26:12.545Z,10.000
2024-03-12T03:27:12.123Z,10.600
2024-03-12T03:28:11.628Z,10.300
2024-03-12T03:29:12.225Z,10.100
2024-03-12T03:30:11.611Z,10.100
2024-03-12T03:31:13.685Z,10.900
2024-03-12T03:32:12.254Z,10.200
2024-03-12T03:33:11.696Z,10.600
2024-03-12T03:34:12.833Z,9.900
2024-03-12T03:35:12.410Z,9.600
2024-03-12T03:37:12.770Z,10.100
2024-03-12T03:38:12.268Z,10.700
2024-03-12T03:40:12.985Z,9.900
2024-03-12T03:41:11.782Z,9.900
2024-03-12T03:42:12.708Z,10.100
2024-03-12T03:43:12.916Z,10.400
2024-03-12T03:44:11.457Z,9.400
2024-03-12T03:45:12.109Z,9.900
2024-03-12T03:46:11.793Z,10.800
2024-03-12T03:47:12.292Z,10.000
2024-03-12T03:48:11.782Z,9.900
2024-03-12T03:49:12.447Z,11.500
2024-03-12T03:50:12.465Z,11.900
2024-03-12T03:52:12.855Z,10.600
2024-03-12T03:53:12.308Z,11.200
2024-03-12T03:54:11.614Z,11.000
2024-03-12T03:55:12.517Z,10.000
2024-03-12T03:56:11.905Z,10.300
2024-03-12T03:57:12.605Z,10.600
2024-03-12T03:58:12.723Z,10.400
2024-03-12T03:59:11.989Z,10.200
2024-03-12T04:00:12.424Z,10.300
2024-03-12T04:01:12.793Z,9.900
2024-03-12T04:02:11.872Z,10.700
2024-03-12T04:03:12.358Z,11.000
2024-03-12T04:04:12.637Z,11.800
2024-03-12T04:05:12.504Z,10.200
2024-03-12T04:06:11.907Z,11.400
2024-03-12T04:07:12.852Z,10.400
2024-03-12T04:08:12.427Z,11.000
2024-03-12T04:09:11.761Z,10.500
2024-03-12T04:10:12.833Z,10.700
2024-03-12T04:11:12.980Z,10.700
2024-03-12T04:12:12.429Z,10.600
2024-03-12T04:13:12.188Z,9.700
2024-03-12T04:14:12.372Z,10.800
2024-03-12T04:15:11.877Z,10.100
2024-03-12T04:16:13.022Z,11.000
2024-03-12T04:17:11.573Z,11.100
2024-03-12T04:18:12.472Z,11.500
2024-03-12T04:19:12.690Z,10.700
2024-03-12T04:20:12.698Z,11.100
2024-03-12T04:21:12.438Z,11.500
2024-03-12T04:22:12.706Z,10.700
2024-03-12T04:23:12.213Z,10.900
2024-03-12T04:25:12.493Z,10.300
2024-03-12T04:27:11.814Z,10.800
2024-03-12T04:28:12.602Z,10.800
2024-03-12T04:29:11.987Z,11.100
2024-03-12T04:30:12.604Z,12.500
2024-03-12T04:31:12.237Z,11.800
2024-03-12T04:32:11.800Z,11.300
2024-03-12T04:33:12.627Z,11.100
2024-03-12T04:34:12.462Z,11.400
2024-03-12T04:35:12.095Z,10.600
2024-03-12T04:36:11.452Z,11.000
2024-03-12T04:37:12.442Z,10.700
2024-03-12T04:38:13.955Z,11.200
2024-03-12T04:40:13.441Z,10.600
2024-03-12T04:41:11.983Z,10.400
2024-03-12T04:42:12.356Z,11.000
2024-03-12T04:43:12.021Z,10.500
2024-03-12T04:44:11.581Z,11.200
2024-03-12T04:45:12.038Z,11.500
2024-03-12T04:46:11.842Z,11.100
2024-03-12T04:47:12.518Z,10.800
2024-03-12T04:48:12.398Z,10.600
2024-03-12T04:49:11.919Z,10.700
2024-03-12T04:50:11.473Z,11.800
2024-03-12T04:52:12.077Z,10.300
2024-03-12T04:53:11.413Z,11.800
2024-03-12T04:54:12.919Z,10.900
2024-03-12T04:55:12.711Z,10.900
2024-03-12T04:56:12.064Z,11.100
2024-03-12T04:57:12.406Z,10.300
2024-03-12T04:58:12.158Z,10.400
2024-03-12T04:59:11.552Z,9.800
2024-03-12T05:00:12.029Z,10.800
2024-03-12T05:01:12.113Z,11.100
2024-03-12T05:02:11.851Z,10.900
2024-03-12T05:03:12.515Z,10.600
2024-03-12T05:04:26.516Z,10.300
2024-03-12T05:05:11.975Z,11.100
2024-03-12T05:06:12.369Z,11.500
2024-03-12T05:07:12.111Z,11.200
2024-03-12T05:08:11.496Z,9.800
2024-03-12T05:09:11.805Z,10.800
2024-03-12T05:10:13.204Z,11.900
2024-03-12T05:11:12.261Z,11.000
2024-03-12T05:12:11.673Z,11.300
2024-03-12T05:13:12.836Z,11.100
2024-03-12T05:14:12.466Z,9.900
2024-03-12T05:15:11.865Z,10.600
2024-03-12T05:16:12.692Z,11.400
2024-03-12T05:17:12.095Z,9.600
2024-03-12T05:18:12.064Z,9.900
2024-03-12T05:19:12.244Z,10.600
2024-03-12T05:20:11.967Z,10.300
2024-03-12T05:22:12.339Z,10.600
2024-03-12T05:23:11.949Z,11.100
2024-03-12T05:24:12.458Z,10.600
2024-03-12T05:26:11.707Z,10.600
2024-03-12T05:27:16.471Z,10.300
2024-03-12T05:28:12.099Z,9.400
2024-03-12T05:29:11.621Z,10.400
2024-03-12T05:30:12.074Z,10.400
2024-03-12T05:31:12.546Z,12.100
2024-03-12T05:32:11.992Z,10.900
2024-03-12T05:33:12.740Z,10.300
2024-03-12T05:34:12.296Z,10.500
2024-03-12T05:35:12.675Z,10.600
2024-03-12T05:37:15.400Z,9.800
2024-03-12T05:38:13.967Z,10.700
2024-03-12T05:39:12.386Z,10.200
2024-03-12T05:40:12.104Z,10.600
2024-03-12T05:42:12.160Z,9.800
2024-03-12T05:43:11.888Z,10.000
2024-03-12T05:44:12.445Z,9.800
2024-03-12T05:45:11.720Z,9.800
2024-03-12T05:46:12.797Z,9.900
2024-03-12T05:47:11.402Z,10.500
2024-03-12T05:48:12.314Z,10.400
2024-03-12T05:49:12.056Z,10.800
2024-03-12T05:50:11.597Z,10.800
2024-03-12T05:51:11.978Z,10.200
2024-03-12T05:52:12.697Z,9.600
2024-03-12T05:53:12.102Z,10.500
2024-03-12T05:54:11.476Z,10.900
2024-03-12T05:55:12.255Z,10.400
2024-03-12T05:56:13.433Z,10.200
2024-03-12T05:57:12.570Z,10.000
2024-03-12T05:58:12.353Z,11.300
2024-03-12T05:59:11.849Z,10.100
2024-03-12T06:00:12.266Z,10.600
2024-03-12T06:01:12.458Z,10.400
2024-03-12T06:02:12.676Z,10.200
2024-03-12T06:03:12.059Z,9.700
2024-03-12T06:04:12.024Z,10.000
2024-03-12T06:05:11.476Z,10.000
2024-03-12T06:06:12.082Z,9.100
2024-03-12T06:09:11.592Z,10.600
2024-03-12T06:10:12.863Z,9.900
2024-03-12T06:11:12.870Z,10.200
2024-03-12T06:12:12.250Z,9.500
2024-03-12T06:13:11.873Z,9.500
2024-03-12T06:14:12.626Z,9.800
2024-03-12T06:15:12.046Z,9.600
2024-03-12T06:16:12.914Z,10.100
2024-03-12T06:17:11.373Z,9.700
2024-03-12T06:18:12.027Z,10.200
2024-03-12T06:19:12.742Z,9.100
2024-03-12T06:20:16.895Z,10.500
2024-03-12T06:22:12.460Z,9.900
2024-03-12T06:23:11.755Z,10.800
2024-03-12T06:24:13.294Z,9.900
2024-03-12T06:25:14.484Z,10.200
2024-03-12T06:26:12.946Z,10.000
2024-03-12T06:27:13.802Z,9.800
2024-03-12T06:28:12.790Z,10.000
2024-03-12T06:29:12.217Z,10.000
2024-03-12T06:31:12.864Z,10.300
2024-03-12T06:32:11.408Z,10.600
2024-03-12T06:33:12.174Z,9.700
2024-03-12T06:34:12.033Z,10.500
2024-03-12T06:35:11.545Z,9.400
2024-03-12T06:36:12.062Z,10.200
2024-03-12T06:37:11.732Z,10.200
2024-03-12T06:38:12.166Z,10.300
2024-03-12T06:39:11.602Z,10.400
2024-03-12T06:40:12.441Z,10.200
2024-03-12T06:41:11.979Z,9.500
2024-03-12T06:42:16.266Z,9.900
2024-03-12T06:43:12.034Z,10.200
2024-03-12T06:46:12.387Z,10.300
2024-03-12T06:47:11.870Z,10.600
2024-03-12T06:48:12.970Z,11.200
2024-03-12T06:49:11.792Z,10.900
2024-03-12T06:50:14.710Z,10.200
2024-03-12T06:51:11.992Z,10.500
2024-03-12T06:52:13.250Z,11.200
2024-03-12T06:54:12.052Z,10.700
2024-03-12T06:55:17.044Z,10.200
2024-03-12T06:56:11.950Z,10.600
2024-03-12T06:57:12.381Z,10.100
2024-03-12T06:58:12.059Z,10.200
2024-03-12T06:59:11.524Z,10.500
2024-03-12T07:00:12.118Z,9.900
2024-03-12T07:01:11.772Z,10.300
2024-03-12T07:03:12.250Z,9.500
2024-03-12T07:04:11.968Z,10.500
2024-03-12T07:05:12.478Z,9.900
2024-03-12T07:06:11.853Z,9.800
2024-03-12T07:07:12.899Z,10.900
2024-03-12T07:08:12.285Z,9.700
2024-03-12T07:09:15.864Z,10.600
2024-03-12T07:11:11.767Z,9.900
2024-03-12T07:12:12.609Z,10.800
2024-03-12T07:13:12.525Z,11.100
2024-03-12T07:14:12.034Z,11.500
2024-03-12T07:15:12.357Z,11.300
2024-03-12T07:16:12.070Z,10.900
2024-03-12T07:17:11.921Z,10.600
2024-03-12T07:18:13.011Z,10.800
2024-03-12T07:19:12.892Z,11.300
2024-03-12T07:20:12.435Z,11.600
2024-03-12T07:21:12.057Z,11.400
2024-03-12T07:22:13.039Z,12.200
2024-03-12T07:23:11.410Z,14.200
2024-03-12T07:24:11.790Z,16.900
2024-03-12T07:25:12.626Z,15.600
2024-03-12T07:26:12.144Z,12.000
2024-03-12T07:27:11.599Z,18.200
2024-03-12T07:28:14.413Z,11.200
2024-03-12T07:29:11.725Z,12.200
2024-03-12T07:30:12.408Z,13.400
2024-03-12T07:32:11.592Z,10.600
2024-03-12T07:33:13.135Z,13.600
2024-03-12T07:34:12.287Z,10.600
2024-03-12T07:35:12.318Z,11.600
2024-03-12T07:36:11.741Z,11.100
2024-03-12T07:37:12.726Z,12.600
2024-03-12T07:38:13.118Z,12.100
2024-03-12T07:39:11.426Z,11.000
2024-03-12T07:40:12.124Z,11.800
2024-03-12T07:41:11.548Z,11.500
2024-03-12T07:42:15.983Z,10.700
2024-03-12T07:44:11.865Z,10.200
2024-03-12T07:45:12.210Z,9.400
2024-03-12T07:46:11.848Z,11.200
2024-03-12T07:47:12.843Z,11.700
2024-03-12T07:48:12.614Z,11.100
2024-03-12T07:49:15.539Z,12.100
2024-03-12T07:51:15.167Z,11.600
2024-03-12T07:52:11.767Z,11.000
2024-03-12T07:53:12.399Z,10.800
2024-03-12T07:54:11.751Z,11.300
2024-03-12T07:55:12.870Z,11.100
2024-03-12T07:57:12.032Z,10.700
2024-03-12T07:58:12.898Z,10.400
2024-03-12T07:59:11.530Z,10.400
2024-03-12T08:00:12.041Z,10.300
2024-03-12T08:01:13.086Z,10.400
2024-03-12T08:02:11.644Z,11.500
2024-03-12T08:03:12.246Z,11.200
2024-03-12T08:04:11.837Z,10.200
2024-03-12T08:05:12.413Z,10.300
2024-03-12T08:06:11.970Z,9.000
2024-03-12T08:07:12.768Z,9.700
2024-03-12T08:08:12.236Z,10.000
2024-03-12T08:09:11.549Z,9.700
2024-03-12T08:10:12.831Z,10.100
2024-03-12T08:12:14.180Z,11.200
2024-03-12T08:13:12.296Z,10.600
2024-03-12T08:14:11.671Z,9.300
2024-03-12T08:15:12.055Z,10.200
2024-03-12T08:16:12.919Z,9.600
2024-03-12T08:17:11.455Z,10.600
2024-03-12T08:18:26.788Z,10.200
2024-03-12T08:20:11.757Z,9.900
2024-03-12T08:21:12.486Z,9.800
2024-03-12T08:22:12.352Z,10.100
2024-03-12T08:23:11.998Z,10.700
2024-03-12T08:26:13.086Z,9.600
2024-03-12T08:27:12.370Z,10.600
2024-03-12T08:28:12.003Z,10.900
2024-03-12T08:29:11.430Z,9.900
2024-03-12T08:30:11.835Z,10.500
2024-03-12T08:31:36.123Z,11.100
2024-03-12T08:33:11.740Z,10.400
2024-03-12T08:34:12.528Z,10.000
2024-03-12T08:35:12.088Z,9.800
2024-03-12T08:36:11.398Z,9.600
2024-03-12T08:37:12.472Z,10.400
2024-03-12T08:38:11.877Z,10.500
2024-03-12T08:39:12.371Z,10.400
2024-03-12T08:40:12.288Z,11.600
2024-03-12T08:41:11.765Z,11.100
2024-03-12T08:42:12.370Z,10.400
2024-03-12T08:43:16.967Z,11.300
2024-03-12T08:44:12.409Z,10.600
2024-03-12T08:47:12.412Z,11.100
2024-03-12T08:48:12.061Z,10.600
2024-03-12T08:49:13.148Z,11.600
2024-03-12T08:50:11.789Z,11.200
2024-03-12T08:51:12.252Z,11.900
2024-03-12T08:52:11.907Z,12.000
2024-03-12T08:53:16.203Z,12.100
2024-03-12T08:55:11.775Z,13.500
2024-03-12T08:56:13.231Z,14.400
2024-03-12T08:57:11.572Z,15.600
2024-03-12T08:58:13.542Z,16.100
2024-03-12T08:59:13.210Z,15.600
2024-03-12T09:02:12.290Z,11.700
2024-03-12T09:03:11.931Z,11.500
2024-03-12T09:04:15.386Z,11.800
2024-03-12T09:05:11.846Z,11.000
2024-03-12T09:06:12.410Z,11.500
2024-03-12T09:07:12.102Z,12.200
2024-03-12T09:08:11.566Z,12.700
2024-03-12T09:09:11.977Z,10.900
2024-03-12T09:10:13.430Z,10.800
2024-03-12T09:12:11.760Z,11.400
2024-03-12T09:13:12.630Z,11.000
2024-03-12T09:14:12.079Z,10.900
2024-03-12T09:15:11.675Z,10.600
2024-03-12T09:16:13.225Z,10.800
2024-03-12T09:17:11.960Z,11.400
2024-03-12T09:18:12.635Z,10.800
2024-03-12T09:19:12.402Z,11.300
2024-03-12T09:20:12.338Z,10.900
2024-03-12T09:21:11.766Z,11.000
2024-03-12T09:22:12.800Z,11.200
2024-03-12T09:23:12.244Z,12.200
2024-03-12T09:24:14.531Z,10.800
2024-03-12T09:25:14.905Z,11.100
2024-03-12T09:27:11.674Z,11.200
2024-03-12T09:28:12.491Z,10.700
2024-03-12T09:29:12.096Z,11.300
2024-03-12T09:30:11.712Z,10.700
2024-03-12T09:31:12.693Z,10.000
2024-03-12T09:33:12.277Z,10.900
2024-03-12T09:34:12.243Z,11.400
2024-03-12T09:35:11.585Z,11.500
2024-03-12T09:36:11.957Z,10.800
2024-03-12T09:37:15.064Z,11.400
2024-03-12T09:38:11.790Z,12.200
2024-03-12T09:39:12.518Z,13.200
2024-03-12T09:40:12.509Z,10.200
2024-03-12T09:41:12.008Z,13.000
2024-03-12T09:42:11.456Z,11.300
2024-03-12T09:43:12.027Z,11.200
2024-03-12T09:44:15.757Z,13.300
2024-03-12T09:45:12.082Z,13.300
2024-03-12T09:46:12.842Z,13.700
2024-03-12T09:47:12.312Z,12.000
2024-03-12T09:48:12.279Z,11.100
2024-03-12T09:49:11.960Z,12.300
2024-03-12T09:51:12.087Z,11.500
2024-03-12T09:53:11.434Z,11.500
2024-03-12T09:54:11.770Z,11.100
2024-03-12T09:56:15.042Z,11.400
2024-03-12T09:57:11.939Z,11.300
2024-03-12T09:58:12.688Z,10.800
2024-03-12T09:59:12.688Z,10.900
2024-03-12T10:00:12.166Z,11.700
2024-03-12T10:01:11.897Z,11.500
2024-03-12T10:02:15.499Z,11.000
2024-03-12T10:03:11.824Z,11.100
2024-03-12T10:04:13.415Z,11.600
2024-03-12T10:05:12.137Z,10.800
2024-03-12T10:06:11.600Z,12.700
2024-03-12T10:07:12.786Z,12.200
2024-03-12T10:08:16.094Z,11.100
2024-03-12T10:09:11.818Z,11.000
2024-03-12T10:10:12.771Z,10.200
2024-03-12T10:11:13.182Z,11.100
2024-03-12T10:12:11.557Z,11.300
2024-03-12T10:13:12.205Z,10.700
2024-03-12T10:14:15.429Z,12.700
2024-03-12T10:15:11.752Z,12.900
2024-03-12T10:16:14.354Z,12.600
2024-03-12T10:17:11.970Z,13.700
2024-03-12T10:18:11.723Z,13.000
2024-03-12T10:19:12.498Z,12.000
2024-03-12T10:20:15.419Z,11.400
2024-03-12T10:21:11.937Z,12.200
2024-03-12T10:22:13.978Z,11.600
2024-03-12T10:24:12.918Z,11.700
2024-03-12T10:25:13.378Z,11.600
2024-03-12T10:26:16.066Z,11.300
2024-03-12T10:28:17.445Z,11.900
2024-03-12T10:29:11.774Z,11.400
2024-03-12T10:30:12.268Z,10.700
2024-03-12T10:31:13.258Z,10.700
2024-03-12T10:32:15.194Z,11.300
2024-03-12T10:33:11.725Z,12.200
2024-03-12T10:34:12.575Z,11.000
2024-03-12T10:35:12.011Z,11.300
2024-03-12T10:36:12.730Z,10.200
2024-03-12T10:37:12.526Z,11.100
2024-03-12T10:38:12.702Z,10.800
2024-03-12T10:39:12.171Z,10.800
2024-03-12T10:41:12.059Z,10.600
2024-03-12T10:42:11.577Z,10.400
2024-03-12T10:43:12.387Z,10.800
2024-03-12T10:44:15.063Z,10.800
2024-03-12T10:46:12.549Z,10.200
2024-03-12T10:47:12.267Z,12.100
2024-03-12T10:48:11.798Z,11.200
2024-03-12T10:49:12.501Z,11.500
2024-03-12T10:50:12.081Z,10.800
2024-03-12T10:51:11.361Z,11.000
2024-03-12T10:52:12.202Z,11.600
2024-03-12T10:53:11.713Z,11.600
2024-03-12T10:54:12.184Z,12.000
2024-03-12T10:55:16.997Z,11.400
2024-03-12T10:56:19.065Z,10.500
2024-03-12T10:59:12.234Z,10.700
2024-03-12T11:00:11.674Z,11.600
2024-03-12T11:01:12.579Z,11.500
2024-03-12T11:02:16.423Z,11.000
2024-03-12T11:03:11.922Z,11.200
2024-03-12T11:04:12.825Z,11.000
2024-03-12T11:05:12.388Z,11.500
2024-03-12T11:06:11.774Z,11.500
2024-03-12T11:07:12.527Z,12.200
2024-03-12T11:08:15.138Z,11.900
2024-03-12T11:09:11.465Z,11.500
2024-03-12T11:10:12.522Z,11.400
2024-03-12T11:11:12.328Z,10.300
2024-03-12T11:12:11.985Z,11.600
2024-03-12T11:13:12.947Z,11.200
2024-03-12T11:14:16.256Z,10.100
2024-03-12T11:15:11.622Z,11.100
2024-03-12T11:16:12.488Z,10.100
2024-03-12T11:17:11.981Z,10.000
2024-03-12T11:18:12.755Z,10.200
2024-03-12T11:19:12.314Z,9.900
2024-03-12T11:20:15.238Z,10.200
2024-03-12T11:21:11.520Z,11.000
2024-03-12T11:22:12.303Z,10.900
2024-03-12T11:25:11.828Z,11.100
2024-03-12T11:26:12.426Z,11.300
2024-03-12T11:27:11.747Z,10.900
2024-03-12T11:28:12.991Z,11.500
2024-03-12T11:29:12.373Z,11.600
2024-03-12T11:30:13.084Z,11.900
2024-03-12T11:31:11.948Z,12.300
2024-03-12T11:32:17.322Z,11.500
2024-03-12T11:33:14.804Z,12.000
2024-03-12T11:34:15.623Z,10.900
2024-03-12T11:35:15.106Z,10.600
2024-03-12T11:36:14.398Z,10.800
2024-03-12T11:37:15.182Z,10.600
2024-03-12T11:38:20.205Z,11.100
2024-03-12T11:40:15.405Z,11.600
2024-03-12T11:41:15.096Z,12.300
2024-03-12T11:43:12.373Z,11.000
2024-03-12T11:44:15.092Z,12.200
2024-03-12T11:46:12.525Z,11.300
2024-03-12T11:48:12.015Z,12.200
2024-03-12T11:49:12.894Z,11.300
2024-03-12T11:50:13.569Z,12.000
2024-03-12T11:51:11.896Z,11.900
2024-03-12T11:52:12.823Z,10.500
2024-03-12T11:53:12.181Z,11.700
2024-03-12T11:54:11.501Z,12.000
2024-03-12T11:55:12.469Z,11.500
2024-03-12T11:56:17.953Z,11.300
2024-03-12T11:59:25.561Z,11.300
2024-03-12T12:00:11.900Z,11.000
2024-03-12T12:01:12.730Z,11.100
2024-03-12T12:02:15.132Z,12.900
2024-03-12T12:03:11.445Z,11.700
2024-03-12T12:04:12.332Z,11.000
2024-03-12T12:05:12.354Z,10.700
2024-03-12T12:06:11.627Z,10.900
2024-03-12T12:07:12.337Z,10.800
2024-03-12T12:08:12.100Z,10.700
2024-03-12T12:09:13.494Z,10.700
2024-03-12T12:10:12.288Z,11.400
2024-03-12T12:11:12.110Z,11.700
2024-03-12T12:12:11.471Z,12.500
2024-03-12T12:13:12.119Z,11.300
2024-03-12T12:14:16.939Z,12.100
2024-03-12T12:15:12.248Z,13.400
2024-03-12T12:16:11.906Z,11.100
2024-03-12T12:17:12.323Z,10.700
2024-03-12T12:18:12.060Z,11.200
2024-03-12T12:19:22.271Z,11.500
2024-03-12T12:20:12.109Z,10.700
2024-03-12T12:22:12.226Z,10.300
2024-03-12T12:24:13.511Z,12.600
2024-03-12T12:25:12.415Z,12.000
2024-03-12T12:26:11.864Z,10.900
2024-03-12T12:27:12.322Z,10.500
2024-03-12T12:28:12.016Z,11.700
2024-03-12T12:30:15.145Z,11.400
2024-03-12T12:31:11.629Z,12.000
2024-03-12T12:32:12.035Z,12.600
2024-03-12T12:33:11.697Z,12.800
2024-03-12T12:34:13.785Z,12.300
2024-03-12T12:35:12.325Z,11.800
2024-03-12T12:37:12.802Z,11.400
2024-03-12T12:38:12.357Z,11.700
2024-03-12T12:39:12.478Z,11.400
2024-03-12T12:40:12.418Z,10.400
2024-03-12T12:41:13.508Z,11.500
2024-03-12T12:42:11.932Z,10.800
2024-03-12T12:43:12.738Z,9.900
2024-03-12T12:44:12.298Z,11.500
2024-03-12T12:45:12.125Z,12.700
2024-03-12T12:46:11.660Z,10.200
2024-03-12T12:47:12.169Z,10.600
2024-03-12T12:48:11.881Z,10.800
2024-03-12T12:49:12.763Z,12.400
2024-03-12T12:50:12.566Z,11.700
2024-03-12T12:52:13.697Z,12.200
2024-03-12T12:53:12.830Z,11.700
2024-03-12T12:54:12.150Z,11.800
2024-03-12T12:57:12.016Z,12.500
2024-03-12T12:58:13.525Z,12.300
2024-03-12T12:59:12.049Z,11.300
2024-03-12T13:00:12.404Z,12.300
2024-03-12T13:01:12.597Z,12.700
2024-03-12T13:02:13.332Z,13.200
2024-03-12T13:03:11.893Z,11.200
2024-03-12T13:04:12.666Z,12.400
2024-03-12T13:05:12.669Z,13.300
2024-03-12T13:06:12.099Z,13.400
2024-03-12T13:07:12.196Z,11.000
2024-03-12T13:08:11.659Z,13.000
2024-03-12T13:09:11.997Z,12.200
2024-03-12T13:10:12.824Z,12.900
2024-03-12T13:11:13.285Z,11.600
2024-03-12T13:12:13.146Z,11.600
2024-03-12T13:13:11.892Z,12.200
2024-03-12T13:14:12.271Z,13.000
2024-03-12T13:15:11.748Z,14.100
2024-03-12T13:16:12.465Z,14.400
2024-03-12T13:17:13.278Z,14.300
2024-03-12T13:18:11.870Z,14.000
2024-03-12T13:19:12.479Z,12.900
2024-03-12T13:20:11.986Z,15.400
2024-03-12T13:21:12.544Z,16.200
2024-03-12T13:23:11.641Z,14.100
2024-03-12T13:24:11.983Z,14.900
2024-03-12T13:25:12.634Z,16.900
2024-03-12T13:26:12.179Z,17.600
2024-03-12T13:27:11.530Z,17.600
2024-03-12T13:28:12.426Z,16.400
2024-03-12T13:29:11.977Z,14.200
2024-03-12T13:30:15.325Z,15.300
2024-03-12T13:31:11.817Z,16.700
2024-03-12T13:32:12.486Z,16.000
2024-03-12T13:33:11.948Z,15.000
2024-03-12T13:34:12.601Z,15.900
2024-03-12T13:35:12.566Z,15.100
2024-03-12T13:36:11.942Z,16.600
2024-03-12T13:37:12.706Z,16.700
2024-03-12T13:38:12.123Z,15.400
2024-03-12T13:39:11.589Z,16.300
2024-03-12T13:40:12.587Z,16.000
2024-03-12T13:41:12.311Z,15.200
2024-03-12T13:43:12.593Z,14.200
2024-03-12T13:45:11.790Z,14.700
2024-03-12T13:46:12.609Z,15.200